sensor_id;sensor_type;location;lat;lon;timestamp;pressure;altitude;pressure_sealevel;temperature;humidity
7480;BME280;3781;42.272;22.658;2022-07-12T00:00:51;95105.31;;;12.23;65.60
7480;BME280;3781;42.272;22.658;2022-07-12T00:03:18;95096.75;;;12.11;65.94
7480;BME280;3781;42.272;22.658;2022-07-12T00:05:45;95107.16;;;12.02;66.07
7480;BME280;3781;42.272;22.658;2022-07-12T00:08:12;95104.56;;;12.11;65.44
7480;BME280;3781;42.272;22.658;2022-07-12T00:10:38;95116.56;;;12.33;64.64
7480;BME280;3781;42.272;22.658;2022-07-12T00:13:05;95117.00;;;12.29;64.75
7480;BME280;3781;42.272;22.658;2022-07-12T00:15:32;95097.66;;;12.31;64.02
7480;BME280;3781;42.272;22.658;2022-07-12T00:18:00;95109.63;;;12.53;63.86
7480;BME280;3781;42.272;22.658;2022-07-12T00:20:27;95103.47;;;12.54;63.41
7480;BME280;3781;42.272;22.658;2022-07-12T00:22:54;95110.59;;;12.52;64.05
7480;BME280;3781;42.272;22.658;2022-07-12T00:25:21;95090.47;;;12.14;67.89
7480;BME280;3781;42.272;22.658;2022-07-12T00:27:48;95017.13;;;11.39;70.74
7480;BME280;3781;42.272;22.658;2022-07-12T00:30:15;95126.28;;;11.91;74.58
7480;BME280;3781;42.272;22.658;2022-07-12T00:32:42;95120.41;;;11.69;78.21
7480;BME280;3781;42.272;22.658;2022-07-12T00:35:10;95111.38;;;11.52;81.62
7480;BME280;3781;42.272;22.658;2022-07-12T00:37:37;95120.19;;;11.40;86.48
7480;BME280;3781;42.272;22.658;2022-07-12T00:40:05;95089.59;;;11.12;87.12
7480;BME280;3781;42.272;22.658;2022-07-12T00:42:34;95114.50;;;11.14;90.98
7480;BME280;3781;42.272;22.658;2022-07-12T00:45:01;95108.34;;;10.95;89.57
7480;BME280;3781;42.272;22.658;2022-07-12T00:47:33;95113.31;;;10.98;89.17
7480;BME280;3781;42.272;22.658;2022-07-12T00:50:04;95117.34;;;10.91;90.78
7480;BME280;3781;42.272;22.658;2022-07-12T00:52:32;95121.84;;;10.89;93.18
7480;BME280;3781;42.272;22.658;2022-07-12T00:54:59;95110.03;;;10.85;90.91
7480;BME280;3781;42.272;22.658;2022-07-12T00:57:26;95074.44;;;10.65;94.14
7480;BME280;3781;42.272;22.658;2022-07-12T00:59:53;95095.88;;;10.78;95.12
7480;BME280;3781;42.272;22.658;2022-07-12T01:02:19;95096.34;;;10.83;94.82
7480;BME280;3781;42.272;22.658;2022-07-12T01:04:46;95092.09;;;10.82;93.32
7480;BME280;3781;42.272;22.658;2022-07-12T01:07:13;95110.97;;;10.84;96.34
7480;BME280;3781;42.272;22.658;2022-07-12T01:09:43;95078.97;;;10.51;94.11
7480;BME280;3781;42.272;22.658;2022-07-12T01:12:10;95095.53;;;10.39;94.76
7480;BME280;3781;42.272;22.658;2022-07-12T01:14:37;95068.97;;;10.03;97.58
7480;BME280;3781;42.272;22.658;2022-07-12T01:17:05;95096.94;;;9.99;99.36
7480;BME280;3781;42.272;22.658;2022-07-12T01:19:34;95073.38;;;9.80;99.45
7480;BME280;3781;42.272;22.658;2022-07-12T01:22:06;95103.78;;;10.00;99.34
7480;BME280;3781;42.272;22.658;2022-07-12T01:24:36;95101.91;;;9.91;100.00
7480;BME280;3781;42.272;22.658;2022-07-12T01:27:04;95099.19;;;9.81;100.00
7480;BME280;3781;42.272;22.658;2022-07-12T01:29:32;95102.13;;;9.77;100.00
7480;BME280;3781;42.272;22.658;2022-07-12T01:32:00;95101.66;;;9.83;100.00
7480;BME280;3781;42.272;22.658;2022-07-12T01:34:49;95060.41;;;9.80;100.00
7480;BME280;3781;42.272;22.658;2022-07-12T01:37:18;95075.63;;;9.96;100.00
7480;BME280;3781;42.272;22.658;2022-07-12T01:39:48;95077.84;;;10.00;100.00
7480;BME280;3781;42.272;22.658;2022-07-12T01:42:15;95031.75;;;9.70;100.00
7480;BME280;3781;42.272;22.658;2022-07-12T01:44:41;95089.63;;;10.04;100.00
7480;BME280;3781;42.272;22.658;2022-07-12T01:47:08;95090.84;;;10.11;100.00
7480;BME280;3781;42.272;22.658;2022-07-12T01:49:35;95069.09;;;10.01;100.00
7480;BME280;3781;42.272;22.658;2022-07-12T01:52:02;95093.19;;;10.25;100.00
7480;BME280;3781;42.272;22.658;2022-07-12T01:54:29;95073.81;;;10.07;100.00
7480;BME280;3781;42.272;22.658;2022-07-12T01:56:57;95058.16;;;9.86;100.00
7480;BME280;3781;42.272;22.658;2022-07-12T01:59:24;95097.66;;;10.01;100.00
7480;BME280;3781;42.272;22.658;2022-07-12T02:01:51;95083.63;;;9.81;100.00
7480;BME280;3781;42.272;22.658;2022-07-12T02:04:18;95095.31;;;9.87;100.00
7480;BME280;3781;42.272;22.658;2022-07-12T02:06:46;95097.91;;;9.87;100.00
7480;BME280;3781;42.272;22.658;2022-07-12T02:09:13;95046.22;;;9.51;100.00
7480;BME280;3781;42.272;22.658;2022-07-12T02:11:40;95098.72;;;9.65;100.00
7480;BME280;3781;42.272;22.658;2022-07-12T02:14:08;95091.94;;;9.30;100.00
7480;BME280;3781;42.272;22.658;2022-07-12T02:16:35;95095.88;;;9.11;100.00
7480;BME280;3781;42.272;22.658;2022-07-12T02:19:02;95076.41;;;8.95;100.00
7480;BME280;3781;42.272;22.658;2022-07-12T02:21:29;95095.25;;;8.97;100.00
7480;BME280;3781;42.272;22.658;2022-07-12T02:23:56;95101.47;;;8.94;100.00
7480;BME280;3781;42.272;22.658;2022-07-12T02:26:23;95094.09;;;9.01;100.00
7480;BME280;3781;42.272;22.658;2022-07-12T02:28:50;95098.47;;;9.11;100.00
7480;BME280;3781;42.272;22.658;2022-07-12T02:31:18;95089.69;;;8.90;100.00
7480;BME280;3781;42.272;22.658;2022-07-12T02:33:45;95070.41;;;8.94;100.00
7480;BME280;3781;42.272;22.658;2022-07-12T02:36:12;95072.63;;;8.88;100.00
7480;BME280;3781;42.272;22.658;2022-07-12T02:38:38;95065.88;;;8.85;100.00
7480;BME280;3781;42.272;22.658;2022-07-12T02:41:05;95076.19;;;8.98;100.00
7480;BME280;3781;42.272;22.658;2022-07-12T02:43:33;95099.63;;;9.07;100.00
7480;BME280;3781;42.272;22.658;2022-07-12T02:46:04;95087.69;;;8.83;100.00
7480;BME280;3781;42.272;22.658;2022-07-12T02:48:32;95088.47;;;8.83;100.00
7480;BME280;3781;42.272;22.658;2022-07-12T02:51:00;95091.78;;;8.85;100.00
7480;BME280;3781;42.272;22.658;2022-07-12T02:53:27;95069.16;;;8.53;100.00
7480;BME280;3781;42.272;22.658;2022-07-12T02:55:54;95096.91;;;8.74;100.00
7480;BME280;3781;42.272;22.658;2022-07-12T02:58:21;95085.25;;;8.69;100.00
7480;BME280;3781;42.272;22.658;2022-07-12T03:00:48;95085.84;;;8.72;100.00
7480;BME280;3781;42.272;22.658;2022-07-12T03:03:15;95075.78;;;8.57;100.00
7480;BME280;3781;42.272;22.658;2022-07-12T03:05:44;95112.13;;;8.79;100.00
7480;BME280;3781;42.272;22.658;2022-07-12T03:08:12;95123.94;;;8.83;100.00
7480;BME280;3781;42.272;22.658;2022-07-12T03:10:39;95110.31;;;8.68;100.00
7480;BME280;3781;42.272;22.658;2022-07-12T03:13:06;95125.19;;;8.77;100.00
7480;BME280;3781;42.272;22.658;2022-07-12T03:15:33;95121.88;;;8.75;100.00
7480;BME280;3781;42.272;22.658;2022-07-12T03:18:00;95127.97;;;8.63;100.00
7480;BME280;3781;42.272;22.658;2022-07-12T03:20:30;95137.47;;;8.63;100.00
7480;BME280;3781;42.272;22.658;2022-07-12T03:22:58;95115.84;;;8.27;100.00
7480;BME280;3781;42.272;22.658;2022-07-12T03:25:25;95136.25;;;8.32;100.00
7480;BME280;3781;42.272;22.658;2022-07-12T03:30:55;95142.28;;;8.56;100.00
7480;BME280;3781;42.272;22.658;2022-07-12T03:33:23;95137.56;;;8.61;100.00
7480;BME280;3781;42.272;22.658;2022-07-12T03:35:50;95134.56;;;8.67;100.00
7480;BME280;3781;42.272;22.658;2022-07-12T03:38:18;95129.25;;;8.45;100.00
7480;BME280;3781;42.272;22.658;2022-07-12T03:40:44;95133.78;;;8.54;100.00
7480;BME280;3781;42.272;22.658;2022-07-12T03:43:11;95137.53;;;8.50;100.00
7480;BME280;3781;42.272;22.658;2022-07-12T03:45:38;95145.78;;;8.55;100.00
7480;BME280;3781;42.272;22.658;2022-07-12T03:48:07;95134.34;;;8.70;100.00
7480;BME280;3781;42.272;22.658;2022-07-12T03:50:34;95111.97;;;8.69;100.00
7480;BME280;3781;42.272;22.658;2022-07-12T03:53:01;95138.97;;;9.01;100.00
7480;BME280;3781;42.272;22.658;2022-07-12T03:55:29;95133.59;;;9.16;100.00
7480;BME280;3781;42.272;22.658;2022-07-12T03:57:56;95144.72;;;9.40;100.00
7480;BME280;3781;42.272;22.658;2022-07-12T04:00:23;95143.84;;;9.52;100.00
7480;BME280;3781;42.272;22.658;2022-07-12T04:02:50;95141.00;;;9.66;100.00
7480;BME280;3781;42.272;22.658;2022-07-12T04:05:18;95148.09;;;9.75;100.00
7480;BME280;3781;42.272;22.658;2022-07-12T04:07:45;95142.94;;;9.97;100.00
7480;BME280;3781;42.272;22.658;2022-07-12T04:10:12;95147.56;;;10.05;100.00
7480;BME280;3781;42.272;22.658;2022-07-12T04:12:40;95140.47;;;10.07;100.00
7480;BME280;3781;42.272;22.658;2022-07-12T04:15:08;95157.94;;;10.27;100.00
7480;BME280;3781;42.272;22.658;2022-07-12T04:17:35;95154.50;;;10.37;100.00
7480;BME280;3781;42.272;22.658;2022-07-12T04:20:02;95153.56;;;10.49;100.00
7480;BME280;3781;42.272;22.658;2022-07-12T04:22:29;95157.78;;;10.61;100.00
7480;BME280;3781;42.272;22.658;2022-07-12T04:24:56;95160.13;;;10.76;100.00
7480;BME280;3781;42.272;22.658;2022-07-12T04:27:23;95137.25;;;10.70;100.00
7480;BME280;3781;42.272;22.658;2022-07-12T04:29:53;95165.00;;;11.01;100.00
7480;BME280;3781;42.272;22.658;2022-07-12T04:32:19;95164.03;;;11.13;100.00
7480;BME280;3781;42.272;22.658;2022-07-12T04:34:46;95159.75;;;11.23;100.00
7480;BME280;3781;42.272;22.658;2022-07-12T04:37:13;95165.34;;;11.39;100.00
7480;BME280;3781;42.272;22.658;2022-07-12T04:39:40;95164.47;;;11.50;100.00
7480;BME280;3781;42.272;22.658;2022-07-12T04:42:07;95165.72;;;11.55;100.00
7480;BME280;3781;42.272;22.658;2022-07-12T04:44:34;95165.13;;;11.83;100.00
7480;BME280;3781;42.272;22.658;2022-07-12T04:47:02;95169.81;;;12.10;100.00
7480;BME280;3781;42.272;22.658;2022-07-12T04:49:31;95171.47;;;12.51;97.99
7480;BME280;3781;42.272;22.658;2022-07-12T04:51:58;95179.81;;;12.94;91.48
7480;BME280;3781;42.272;22.658;2022-07-12T04:54:25;95187.88;;;13.59;82.83
7480;BME280;3781;42.272;22.658;2022-07-12T04:56:51;95188.94;;;14.05;79.00
7480;BME280;3781;42.272;22.658;2022-07-12T04:59:18;95185.56;;;14.41;75.47
7480;BME280;3781;42.272;22.658;2022-07-12T05:01:45;95175.59;;;15.08;71.74
7480;BME280;3781;42.272;22.658;2022-07-12T05:04:13;95191.44;;;16.13;64.89
7480;BME280;3781;42.272;22.658;2022-07-12T05:06:40;95199.28;;;16.98;61.65
7480;BME280;3781;42.272;22.658;2022-07-12T05:09:06;95191.13;;;17.51;59.97
7480;BME280;3781;42.272;22.658;2022-07-12T05:11:33;95191.44;;;17.88;58.23
7480;BME280;3781;42.272;22.658;2022-07-12T05:14:00;95200.59;;;18.64;56.29
7480;BME280;3781;42.272;22.658;2022-07-12T05:16:27;95188.09;;;19.05;54.41
7480;BME280;3781;42.272;22.658;2022-07-12T05:18:54;95195.88;;;18.03;55.45
7480;BME280;3781;42.272;22.658;2022-07-12T05:21:22;95201.31;;;17.94;53.81
7480;BME280;3781;42.272;22.658;2022-07-12T05:23:49;95191.50;;;17.30;57.71
7480;BME280;3781;42.272;22.658;2022-07-12T05:26:16;95174.50;;;16.07;60.60
7480;BME280;3781;42.272;22.658;2022-07-12T05:28:43;95180.84;;;15.79;64.03
7480;BME280;3781;42.272;22.658;2022-07-12T05:31:10;95185.19;;;15.53;67.05
7480;BME280;3781;42.272;22.658;2022-07-12T05:33:37;95185.16;;;15.18;69.10
7480;BME280;3781;42.272;22.658;2022-07-12T05:36:04;95181.69;;;14.99;69.31
7480;BME280;3781;42.272;22.658;2022-07-12T05:38:32;95176.06;;;14.94;71.03
7480;BME280;3781;42.272;22.658;2022-07-12T05:40:59;95181.97;;;14.96;69.69
7480;BME280;3781;42.272;22.658;2022-07-12T05:43:26;95158.44;;;14.79;73.55
7480;BME280;3781;42.272;22.658;2022-07-12T05:45:52;95176.22;;;14.93;72.46
7480;BME280;3781;42.272;22.658;2022-07-12T05:48:19;95172.28;;;15.06;71.55
7480;BME280;3781;42.272;22.658;2022-07-12T05:50:46;95176.84;;;15.04;71.66
7480;BME280;3781;42.272;22.658;2022-07-12T05:53:13;95178.59;;;15.14;71.61
7480;BME280;3781;42.272;22.658;2022-07-12T05:55:49;95169.97;;;15.21;71.80
7480;BME280;3781;42.272;22.658;2022-07-12T05:58:16;95168.69;;;15.07;71.83
7480;BME280;3781;42.272;22.658;2022-07-12T06:00:43;95158.41;;;15.24;70.60
7480;BME280;3781;42.272;22.658;2022-07-12T06:03:10;95138.59;;;15.21;70.67
7480;BME280;3781;42.272;22.658;2022-07-12T06:05:37;95142.25;;;15.28;72.71
7480;BME280;3781;42.272;22.658;2022-07-12T06:08:04;95157.78;;;15.57;72.41
7480;BME280;3781;42.272;22.658;2022-07-12T06:10:31;95126.69;;;15.62;69.81
7480;BME280;3781;42.272;22.658;2022-07-12T06:13:00;95154.88;;;15.85;70.44
7480;BME280;3781;42.272;22.658;2022-07-12T06:15:27;95150.78;;;16.09;67.94
7480;BME280;3781;42.272;22.658;2022-07-12T06:17:54;95152.81;;;15.97;65.44
7480;BME280;3781;42.272;22.658;2022-07-12T06:20:21;95150.59;;;16.02;69.60
7480;BME280;3781;42.272;22.658;2022-07-12T06:22:48;95141.72;;;16.03;63.95
7480;BME280;3781;42.272;22.658;2022-07-12T06:25:15;95151.81;;;16.16;67.49
7480;BME280;3781;42.272;22.658;2022-07-12T06:27:42;95149.13;;;16.33;67.48
7480;BME280;3781;42.272;22.658;2022-07-12T06:30:10;95152.34;;;16.53;66.76
7480;BME280;3781;42.272;22.658;2022-07-12T06:32:37;95153.00;;;16.81;66.00
7480;BME280;3781;42.272;22.658;2022-07-12T06:35:05;95157.50;;;17.04;61.91
7480;BME280;3781;42.272;22.658;2022-07-12T06:37:32;95156.06;;;17.18;65.16
7480;BME280;3781;42.272;22.658;2022-07-12T06:39:59;95148.03;;;17.35;63.78
7480;BME280;3781;42.272;22.658;2022-07-12T06:42:25;95152.38;;;17.53;62.11
7480;BME280;3781;42.272;22.658;2022-07-12T06:44:52;95151.72;;;17.59;61.96
7480;BME280;3781;42.272;22.658;2022-07-12T06:47:21;95145.63;;;17.90;61.41
7480;BME280;3781;42.272;22.658;2022-07-12T06:49:48;95130.88;;;17.89;59.14
7480;BME280;3781;42.272;22.658;2022-07-12T06:52:14;95150.53;;;18.18;59.91
7480;BME280;3781;42.272;22.658;2022-07-12T06:54:41;95155.75;;;18.34;56.49
7480;BME280;3781;42.272;22.658;2022-07-12T06:57:08;95144.53;;;18.56;57.48
7480;BME280;3781;42.272;22.658;2022-07-12T06:59:35;95151.66;;;18.86;55.59
7480;BME280;3781;42.272;22.658;2022-07-12T07:02:02;95146.81;;;19.06;55.85
7480;BME280;3781;42.272;22.658;2022-07-12T07:04:31;95146.91;;;19.20;55.47
7480;BME280;3781;42.272;22.658;2022-07-12T07:06:58;95135.81;;;19.33;55.26
7480;BME280;3781;42.272;22.658;2022-07-12T07:09:24;95139.75;;;19.60;55.05
7480;BME280;3781;42.272;22.658;2022-07-12T07:11:51;95091.50;;;19.36;54.14
7480;BME280;3781;42.272;22.658;2022-07-12T07:14:18;95134.03;;;19.79;53.23
7480;BME280;3781;42.272;22.658;2022-07-12T07:16:45;95144.41;;;19.95;52.67
7480;BME280;3781;42.272;22.658;2022-07-12T07:19:12;95155.50;;;20.27;52.40
7480;BME280;3781;42.272;22.658;2022-07-12T07:21:40;95146.91;;;20.48;50.90
7480;BME280;3781;42.272;22.658;2022-07-12T07:24:07;95146.53;;;20.51;48.66
7480;BME280;3781;42.272;22.658;2022-07-12T07:26:35;95148.63;;;20.56;48.76
7480;BME280;3781;42.272;22.658;2022-07-12T07:29:02;95144.19;;;20.85;48.66
7480;BME280;3781;42.272;22.658;2022-07-12T07:31:46;95144.91;;;21.09;48.98
7480;BME280;3781;42.272;22.658;2022-07-12T07:34:13;95145.75;;;21.30;47.03
7480;BME280;3781;42.272;22.658;2022-07-12T07:36:41;95148.63;;;21.50;46.22
7480;BME280;3781;42.272;22.658;2022-07-12T07:39:08;95147.69;;;21.57;45.23
7480;BME280;3781;42.272;22.658;2022-07-12T07:41:35;95143.47;;;21.63;45.83
7480;BME280;3781;42.272;22.658;2022-07-12T07:44:01;95148.50;;;22.21;43.97
7480;BME280;3781;42.272;22.658;2022-07-12T07:46:28;95130.72;;;22.43;45.27
7480;BME280;3781;42.272;22.658;2022-07-12T07:48:55;95139.28;;;22.45;43.85
7480;BME280;3781;42.272;22.658;2022-07-12T07:51:22;95138.88;;;22.41;42.61
7480;BME280;3781;42.272;22.658;2022-07-12T07:53:50;95135.94;;;22.92;41.97
7480;BME280;3781;42.272;22.658;2022-07-12T07:56:17;95125.03;;;23.75;42.83
7480;BME280;3781;42.272;22.658;2022-07-12T07:58:43;95128.94;;;23.98;41.43
7480;BME280;3781;42.272;22.658;2022-07-12T08:01:10;95124.44;;;24.19;39.76
7480;BME280;3781;42.272;22.658;2022-07-12T08:03:37;95130.53;;;24.65;41.67
7480;BME280;3781;42.272;22.658;2022-07-12T08:06:05;95128.13;;;24.50;40.08
7480;BME280;3781;42.272;22.658;2022-07-12T08:08:31;95132.84;;;23.29;39.98
7480;BME280;3781;42.272;22.658;2022-07-12T08:11:00;95121.09;;;23.51;39.63
7480;BME280;3781;42.272;22.658;2022-07-12T08:13:26;95130.34;;;23.21;36.70
7480;BME280;3781;42.272;22.658;2022-07-12T08:15:53;95106.38;;;22.88;40.13
7480;BME280;3781;42.272;22.658;2022-07-12T08:18:20;95120.44;;;22.89;40.92
7480;BME280;3781;42.272;22.658;2022-07-12T08:20:47;95116.78;;;22.90;42.36
7480;BME280;3781;42.272;22.658;2022-07-12T08:23:15;95098.22;;;23.37;41.63
7480;BME280;3781;42.272;22.658;2022-07-12T08:25:41;95123.63;;;23.92;38.89
7480;BME280;3781;42.272;22.658;2022-07-12T08:28:10;95131.47;;;22.30;37.60
7480;BME280;3781;42.272;22.658;2022-07-12T08:30:36;95127.66;;;22.12;38.89
7480;BME280;3781;42.272;22.658;2022-07-12T08:33:03;95121.59;;;22.45;41.83
7480;BME280;3781;42.272;22.658;2022-07-12T08:35:30;95117.59;;;22.97;41.34
7480;BME280;3781;42.272;22.658;2022-07-12T08:37:57;95118.25;;;23.59;40.60
7480;BME280;3781;42.272;22.658;2022-07-12T08:40:23;95115.47;;;24.39;39.78
7480;BME280;3781;42.272;22.658;2022-07-12T08:42:50;95101.41;;;25.09;38.71
7480;BME280;3781;42.272;22.658;2022-07-12T08:45:18;95110.88;;;24.99;38.69
7480;BME280;3781;42.272;22.658;2022-07-12T08:47:45;95104.78;;;24.72;38.33
7480;BME280;3781;42.272;22.658;2022-07-12T08:50:14;95110.06;;;24.92;37.35
7480;BME280;3781;42.272;22.658;2022-07-12T08:52:43;95105.63;;;25.68;36.18
7480;BME280;3781;42.272;22.658;2022-07-12T08:55:21;95101.28;;;25.42;34.54
7480;BME280;3781;42.272;22.658;2022-07-12T08:57:50;95092.09;;;25.69;32.54
7480;BME280;3781;42.272;22.658;2022-07-12T09:00:19;95094.63;;;26.99;33.96
7480;BME280;3781;42.272;22.658;2022-07-12T09:02:47;95087.78;;;27.57;34.54
7480;BME280;3781;42.272;22.658;2022-07-12T09:05:15;95090.94;;;28.19;30.63
7480;BME280;3781;42.272;22.658;2022-07-12T09:07:42;95092.38;;;28.56;30.26
7480;BME280;3781;42.272;22.658;2022-07-12T09:10:10;95089.78;;;29.07;29.73
7480;BME280;3781;42.272;22.658;2022-07-12T09:12:39;95094.25;;;27.91;29.22
7480;BME280;3781;42.272;22.658;2022-07-12T09:15:11;95093.50;;;27.43;31.67
7480;BME280;3781;42.272;22.658;2022-07-12T09:17:39;95092.34;;;26.84;32.46
7480;BME280;3781;42.272;22.658;2022-07-12T09:20:09;95089.84;;;27.85;30.65
7480;BME280;3781;42.272;22.658;2022-07-12T09:22:37;95088.09;;;27.31;31.65
7480;BME280;3781;42.272;22.658;2022-07-12T09:25:16;95086.34;;;26.28;32.68
7480;BME280;3781;42.272;22.658;2022-07-12T09:27:47;95061.44;;;24.78;34.17
7480;BME280;3781;42.272;22.658;2022-07-12T09:30:15;95063.63;;;24.11;36.63
7480;BME280;3781;42.272;22.658;2022-07-12T09:32:54;95068.50;;;24.27;35.43
7480;BME280;3781;42.272;22.658;2022-07-12T09:35:40;95064.00;;;24.21;35.89
7480;BME280;3781;42.272;22.658;2022-07-12T09:38:25;95048.94;;;25.67;33.31
7480;BME280;3781;42.272;22.658;2022-07-12T09:40:53;95076.34;;;26.66;31.48
7480;BME280;3781;42.272;22.658;2022-07-12T09:43:22;95062.56;;;26.69;32.32
7480;BME280;3781;42.272;22.658;2022-07-12T09:45:49;95075.75;;;26.22;31.02
7480;BME280;3781;42.272;22.658;2022-07-12T09:48:18;95072.66;;;26.43;31.80
7480;BME280;3781;42.272;22.658;2022-07-12T09:50:47;95067.94;;;26.87;32.37
7480;BME280;3781;42.272;22.658;2022-07-12T09:53:21;95058.63;;;27.56;33.26
7480;BME280;3781;42.272;22.658;2022-07-12T09:55:49;95044.47;;;28.89;32.06
7480;BME280;3781;42.272;22.658;2022-07-12T09:58:22;95057.47;;;27.52;29.31
7480;BME280;3781;42.272;22.658;2022-07-12T10:00:50;95065.81;;;25.86;31.47
7480;BME280;3781;42.272;22.658;2022-07-12T10:03:21;95047.56;;;24.76;32.49
7480;BME280;3781;42.272;22.658;2022-07-12T10:05:50;95069.19;;;25.30;31.22
7480;BME280;3781;42.272;22.658;2022-07-12T10:08:19;95042.81;;;24.91;32.53
7480;BME280;3781;42.272;22.658;2022-07-12T10:10:47;95063.69;;;24.88;31.79
7480;BME280;3781;42.272;22.658;2022-07-12T10:13:15;95061.34;;;25.04;35.39
7480;BME280;3781;42.272;22.658;2022-07-12T10:15:42;95063.59;;;25.38;35.88
7480;BME280;3781;42.272;22.658;2022-07-12T10:18:16;95052.50;;;25.55;35.51
7480;BME280;3781;42.272;22.658;2022-07-12T10:20:45;95060.47;;;25.86;34.34
7480;BME280;3781;42.272;22.658;2022-07-12T10:23:35;95041.16;;;25.90;35.65
7480;BME280;3781;42.272;22.658;2022-07-12T10:26:36;95048.53;;;27.58;36.77
7480;BME280;3781;42.272;22.658;2022-07-12T10:29:07;95052.59;;;29.34;30.56
7480;BME280;3781;42.272;22.658;2022-07-12T10:31:36;95039.03;;;30.14;28.74
7480;BME280;3781;42.272;22.658;2022-07-12T10:34:12;95045.28;;;31.12;28.07
7480;BME280;3781;42.272;22.658;2022-07-12T10:37:09;95051.28;;;33.00;27.85
7480;BME280;3781;42.272;22.658;2022-07-12T10:39:36;95048.34;;;32.59;24.99
7480;BME280;3781;42.272;22.658;2022-07-12T10:42:13;95038.81;;;32.84;24.97
7480;BME280;3781;42.272;22.658;2022-07-12T10:44:43;95048.31;;;31.64;26.37
7480;BME280;3781;42.272;22.658;2022-07-12T10:47:11;95041.78;;;31.55;27.46
7480;BME280;3781;42.272;22.658;2022-07-12T10:49:46;95037.09;;;32.67;27.34
7480;BME280;3781;42.272;22.658;2022-07-12T10:52:23;95037.16;;;32.78;25.63
7480;BME280;3781;42.272;22.658;2022-07-12T10:55:16;95027.44;;;30.25;26.02
7480;BME280;3781;42.272;22.658;2022-07-12T10:57:44;95033.78;;;29.29;26.88
7480;BME280;3781;42.272;22.658;2022-07-12T11:00:13;95002.28;;;29.20;28.35
7480;BME280;3781;42.272;22.658;2022-07-12T11:02:41;95035.53;;;29.80;24.78
7480;BME280;3781;42.272;22.658;2022-07-12T11:05:09;95023.28;;;29.39;26.01
7480;BME280;3781;42.272;22.658;2022-07-12T11:07:37;95024.50;;;28.80;25.96
7480;BME280;3781;42.272;22.658;2022-07-12T11:10:06;95021.94;;;28.85;27.04
7480;BME280;3781;42.272;22.658;2022-07-12T11:12:33;95029.19;;;29.41;26.20
7480;BME280;3781;42.272;22.658;2022-07-12T11:15:00;94972.56;;;30.87;28.31
7480;BME280;3781;42.272;22.658;2022-07-12T11:17:28;95015.81;;;30.74;27.59
7480;BME280;3781;42.272;22.658;2022-07-12T11:20:16;95018.31;;;29.76;30.51
7480;BME280;3781;42.272;22.658;2022-07-12T11:22:44;95016.59;;;29.53;30.11
7480;BME280;3781;42.272;22.658;2022-07-12T11:25:12;95018.72;;;28.25;29.37
7480;BME280;3781;42.272;22.658;2022-07-12T11:27:39;94917.72;;;26.46;30.45
7480;BME280;3781;42.272;22.658;2022-07-12T11:30:07;94997.72;;;26.39;32.79
7480;BME280;3781;42.272;22.658;2022-07-12T11:32:36;95006.31;;;26.77;32.19
7480;BME280;3781;42.272;22.658;2022-07-12T11:35:04;95004.81;;;27.59;31.04
7480;BME280;3781;42.272;22.658;2022-07-12T11:37:31;94988.00;;;27.29;32.00
7480;BME280;3781;42.272;22.658;2022-07-12T11:40:00;94952.47;;;27.58;33.14
7480;BME280;3781;42.272;22.658;2022-07-12T11:42:26;95005.63;;;27.71;31.57
7480;BME280;3781;42.272;22.658;2022-07-12T11:44:53;95002.03;;;27.66;32.98
7480;BME280;3781;42.272;22.658;2022-07-12T11:47:22;95003.81;;;27.83;31.34
7480;BME280;3781;42.272;22.658;2022-07-12T11:49:50;94998.88;;;27.98;32.99
7480;BME280;3781;42.272;22.658;2022-07-12T11:52:18;94999.00;;;27.50;31.82
7480;BME280;3781;42.272;22.658;2022-07-12T11:54:45;94996.19;;;26.86;31.52
7480;BME280;3781;42.272;22.658;2022-07-12T11:57:14;94987.72;;;26.35;33.78
7480;BME280;3781;42.272;22.658;2022-07-12T11:59:41;94991.91;;;26.49;34.23
7480;BME280;3781;42.272;22.658;2022-07-12T12:02:11;94990.91;;;27.80;33.01
7480;BME280;3781;42.272;22.658;2022-07-12T12:04:45;95004.03;;;30.37;30.50
7480;BME280;3781;42.272;22.658;2022-07-12T12:07:13;94992.94;;;30.67;27.06
7480;BME280;3781;42.272;22.658;2022-07-12T12:10:02;94996.72;;;30.49;28.46
7480;BME280;3781;42.272;22.658;2022-07-12T12:12:37;94990.41;;;29.89;28.71
7480;BME280;3781;42.272;22.658;2022-07-12T12:15:06;94984.19;;;29.38;27.85
7480;BME280;3781;42.272;22.658;2022-07-12T12:17:34;94997.25;;;29.23;30.57
7480;BME280;3781;42.272;22.658;2022-07-12T12:20:12;94989.31;;;28.25;33.23
7480;BME280;3781;42.272;22.658;2022-07-12T12:22:39;94984.34;;;28.17;32.34
7480;BME280;3781;42.272;22.658;2022-07-12T12:25:06;94977.31;;;27.47;33.04
7480;BME280;3781;42.272;22.658;2022-07-12T12:27:44;94986.59;;;27.68;30.72
7480;BME280;3781;42.272;22.658;2022-07-12T12:30:11;94978.22;;;29.08;30.90
7480;BME280;3781;42.272;22.658;2022-07-12T12:32:49;94970.16;;;31.66;29.65
7480;BME280;3781;42.272;22.658;2022-07-12T12:35:19;94967.81;;;32.95;27.57
7480;BME280;3781;42.272;22.658;2022-07-12T12:37:51;94977.03;;;34.85;24.38
7480;BME280;3781;42.272;22.658;2022-07-12T12:40:19;94983.00;;;33.21;22.20
7480;BME280;3781;42.272;22.658;2022-07-12T12:42:48;94948.16;;;32.42;24.31
7480;BME280;3781;42.272;22.658;2022-07-12T12:45:20;94964.59;;;31.72;25.86
7480;BME280;3781;42.272;22.658;2022-07-12T12:47:58;94965.72;;;31.50;27.18
7480;BME280;3781;42.272;22.658;2022-07-12T12:50:44;94974.59;;;32.14;25.20
7480;BME280;3781;42.272;22.658;2022-07-12T12:53:13;94977.72;;;33.91;24.52
7480;BME280;3781;42.272;22.658;2022-07-12T12:55:42;94976.34;;;35.28;24.38
7480;BME280;3781;42.272;22.658;2022-07-12T12:58:11;94974.78;;;36.05;20.93
7480;BME280;3781;42.272;22.658;2022-07-12T13:00:39;94979.19;;;34.93;22.29
7480;BME280;3781;42.272;22.658;2022-07-12T13:03:07;94968.00;;;33.65;25.39
7480;BME280;3781;42.272;22.658;2022-07-12T13:05:35;94952.38;;;34.28;23.78
7480;BME280;3781;42.272;22.658;2022-07-12T13:08:02;94978.22;;;33.53;24.44
7480;BME280;3781;42.272;22.658;2022-07-12T13:10:30;94972.84;;;33.93;23.98
7480;BME280;3781;42.272;22.658;2022-07-12T13:12:57;94968.81;;;35.25;24.38
7480;BME280;3781;42.272;22.658;2022-07-12T13:15:26;94978.44;;;36.48;20.82
7480;BME280;3781;42.272;22.658;2022-07-12T13:17:54;94969.84;;;37.17;19.04
7480;BME280;3781;42.272;22.658;2022-07-12T13:20:21;94960.47;;;33.57;22.49